createdAt,value
2017-05-14T00:00:23.488Z,16.95
2017-05-14T00:01:24.852Z,17.03
2017-05-14T00:02:26.216Z,16.89
2017-05-14T00:03:27.579Z,16.85
2017-05-14T00:04:28.947Z,16.89
2017-05-14T00:05:30.314Z,16.85
2017-05-14T00:06:31.682Z,16.86
2017-05-14T00:07:33.044Z,16.89
2017-05-14T00:08:34.404Z,16.93
2017-05-14T00:09:35.775Z,16.95
2017-05-14T00:10:37.150Z,16.92
2017-05-14T00:11:38.611Z,16.85
2017-05-14T00:12:39.979Z,16.92
2017-05-14T00:13:41.359Z,16.88
2017-05-14T00:14:42.723Z,16.90
2017-05-14T00:15:44.079Z,16.92
2017-05-14T00:16:45.444Z,16.88
2017-05-14T00:17:46.822Z,16.89
2017-05-14T00:18:48.188Z,16.85
2017-05-14T00:19:49.558Z,16.86
2017-05-14T00:20:50.926Z,16.89
2017-05-14T00:21:52.367Z,16.93
2017-05-14T00:22:53.766Z,16.88
2017-05-14T00:23:55.094Z,16.90
2017-05-14T00:24:56.463Z,16.93
2017-05-14T00:25:57.818Z,16.96
2017-05-14T00:26:59.182Z,16.85
2017-05-14T00:28:00.553Z,16.83
2017-05-14T00:29:01.927Z,16.92
2017-05-14T00:30:03.325Z,16.89
2017-05-14T00:31:04.652Z,16.85
2017-05-14T00:32:06.021Z,16.85
2017-05-14T00:33:07.385Z,16.86
2017-05-14T00:34:08.749Z,16.83
2017-05-14T00:35:10.121Z,16.81
2017-05-14T00:36:11.481Z,16.80
2017-05-14T00:37:12.854Z,16.92
2017-05-14T00:38:14.232Z,16.86
2017-05-14T00:39:15.613Z,16.85
2017-05-14T00:40:16.978Z,16.80
2017-05-14T00:41:18.340Z,16.77
2017-05-14T00:42:19.711Z,16.75
2017-05-14T00:43:21.073Z,16.77
2017-05-14T00:44:22.433Z,16.81
2017-05-14T00:45:23.801Z,16.78
2017-05-14T00:46:25.164Z,16.75
2017-05-14T00:47:26.528Z,16.77
2017-05-14T00:48:27.897Z,16.85
2017-05-14T00:49:29.263Z,16.81
2017-05-14T00:50:30.630Z,16.81
2017-05-14T00:51:31.990Z,16.75
2017-05-14T00:52:33.351Z,16.81
2017-05-14T00:53:34.716Z,16.78
2017-05-14T00:54:36.087Z,16.78
2017-05-14T00:55:37.449Z,16.75
2017-05-14T00:56:38.817Z,16.74
2017-05-14T00:57:40.177Z,16.78
2017-05-14T00:58:41.544Z,16.73
2017-05-14T00:59:42.908Z,16.70
2017-05-14T01:00:44.317Z,16.68
2017-05-14T01:01:45.678Z,16.63
2017-05-14T01:02:47.051Z,16.73
2017-05-14T01:03:48.419Z,16.67
2017-05-14T01:04:49.779Z,16.65
2017-05-14T01:05:51.144Z,16.60
2017-05-14T01:06:52.549Z,16.55
2017-05-14T01:07:53.917Z,16.62
2017-05-14T01:08:55.281Z,16.62
2017-05-14T01:09:56.654Z,16.56
2017-05-14T01:10:58.100Z,16.62
2017-05-14T01:11:59.459Z,16.56
2017-05-14T01:13:00.821Z,16.55
2017-05-14T01:14:02.187Z,16.58
2017-05-14T01:15:03.557Z,16.38
2017-05-14T01:16:04.917Z,16.37
2017-05-14T01:17:06.289Z,16.42
2017-05-14T01:18:07.647Z,16.38
2017-05-14T01:19:09.021Z,16.42
2017-05-14T01:20:10.384Z,16.35
2017-05-14T01:21:11.755Z,16.37
2017-05-14T01:22:13.116Z,16.38
2017-05-14T01:23:14.486Z,16.38
2017-05-14T01:24:15.847Z,16.37
2017-05-14T01:25:17.218Z,16.41
2017-05-14T01:26:18.578Z,16.35
2017-05-14T01:27:19.939Z,16.27
2017-05-14T01:28:21.303Z,16.30
2017-05-14T01:29:22.673Z,16.25
2017-05-14T01:30:24.037Z,16.33
2017-05-14T01:31:25.405Z,16.27
2017-05-14T01:32:26.788Z,16.37
2017-05-14T01:33:28.155Z,16.20
2017-05-14T01:34:29.514Z,16.20
2017-05-14T01:35:30.883Z,16.23
2017-05-14T01:36:32.296Z,16.23
2017-05-14T01:37:33.672Z,16.23
2017-05-14T01:38:35.062Z,16.20
2017-05-14T01:39:36.472Z,16.16
2017-05-14T01:40:37.910Z,16.00
2017-05-14T01:41:39.317Z,16.04
2017-05-14T01:42:40.747Z,16.18
2017-05-14T01:43:42.119Z,16.20
2017-05-14T01:44:43.531Z,16.15
2017-05-14T01:45:44.943Z,16.15
2017-05-14T01:46:46.343Z,16.14
2017-05-14T01:47:47.738Z,16.04
2017-05-14T01:48:49.206Z,16.07
2017-05-14T01:49:50.554Z,16.14
2017-05-14T01:50:51.931Z,16.09
2017-05-14T01:51:53.301Z,16.11
2017-05-14T01:52:54.664Z,16.07
2017-05-14T01:53:56.029Z,16.12
2017-05-14T01:54:57.394Z,16.11
2017-05-14T01:55:58.759Z,16.09
2017-05-14T01:57:00.121Z,16.14
2017-05-14T01:58:01.490Z,16.15
2017-05-14T01:59:02.915Z,16.01
2017-05-14T02:00:04.282Z,16.04
2017-05-14T02:01:05.652Z,15.97
2017-05-14T02:02:07.019Z,15.96
2017-05-14T02:03:08.377Z,15.99
2017-05-14T02:04:09.754Z,15.94
2017-05-14T02:05:11.115Z,16.01
2017-05-14T02:06:12.484Z,16.04
2017-05-14T02:07:13.847Z,16.04
2017-05-14T02:08:15.217Z,15.97
2017-05-14T02:09:16.575Z,15.88
2017-05-14T02:10:17.947Z,15.97
2017-05-14T02:11:19.306Z,15.88
2017-05-14T02:12:20.677Z,16.00
2017-05-14T02:13:22.041Z,15.88
2017-05-14T02:14:23.405Z,15.96
2017-05-14T02:15:24.769Z,15.94
2017-05-14T02:16:26.130Z,15.96
2017-05-14T02:17:27.493Z,15.89
2017-05-14T02:18:28.870Z,15.85
2017-05-14T02:19:30.234Z,15.79
2017-05-14T02:20:31.605Z,15.76
2017-05-14T02:21:32.991Z,15.94
2017-05-14T02:22:34.368Z,15.81
2017-05-14T02:23:35.735Z,15.81
2017-05-14T02:24:37.133Z,15.76
2017-05-14T02:25:38.465Z,15.82
2017-05-14T02:26:39.825Z,15.82
2017-05-14T02:27:41.199Z,15.76
2017-05-14T02:28:43.250Z,15.75
2017-05-14T02:29:44.608Z,15.70
2017-05-14T02:30:45.976Z,15.75
2017-05-14T02:31:47.341Z,15.75
2017-05-14T02:32:48.702Z,15.75
2017-05-14T02:33:50.079Z,15.68
2017-05-14T02:34:51.441Z,15.74
2017-05-14T02:35:52.806Z,15.74
2017-05-14T02:36:54.200Z,15.76
2017-05-14T02:37:55.565Z,15.67
2017-05-14T02:38:56.923Z,15.78
2017-05-14T02:39:58.305Z,15.82
2017-05-14T02:40:59.655Z,15.68
2017-05-14T02:42:01.021Z,15.79
2017-05-14T02:43:02.383Z,15.64
2017-05-14T02:44:03.749Z,15.68
2017-05-14T02:45:05.117Z,15.67
2017-05-14T02:46:06.477Z,15.70
2017-05-14T02:47:07.915Z,15.74
2017-05-14T02:48:09.280Z,15.75
2017-05-14T02:49:10.640Z,15.61
2017-05-14T02:50:12.010Z,15.60
2017-05-14T02:51:13.372Z,15.70
2017-05-14T02:52:14.741Z,15.70
2017-05-14T02:53:16.106Z,15.52
2017-05-14T02:54:17.471Z,15.64
2017-05-14T02:55:18.840Z,15.59
2017-05-14T02:56:20.197Z,15.59
2017-05-14T02:57:21.560Z,15.61
2017-05-14T02:58:22.929Z,15.56
2017-05-14T02:59:24.296Z,15.59
2017-05-14T03:00:25.659Z,15.56
2017-05-14T03:01:27.022Z,15.36
2017-05-14T03:02:28.380Z,15.57
2017-05-14T03:03:29.751Z,15.57
2017-05-14T03:04:31.121Z,15.54
2017-05-14T03:05:32.486Z,15.45
2017-05-14T03:06:33.851Z,15.48
2017-05-14T03:07:35.214Z,15.51
2017-05-14T03:08:36.583Z,15.54
2017-05-14T03:09:37.942Z,15.48
2017-05-14T03:10:39.312Z,15.56
2017-05-14T03:11:40.683Z,15.52
2017-05-14T03:12:42.052Z,15.46
2017-05-14T03:13:43.416Z,15.49
2017-05-14T03:14:44.779Z,15.51
2017-05-14T03:15:46.143Z,15.39
2017-05-14T03:16:47.511Z,15.49
2017-05-14T03:17:48.878Z,15.49
2017-05-14T03:18:50.274Z,15.49
2017-05-14T03:19:51.631Z,15.35
2017-05-14T03:20:53.003Z,15.38
2017-05-14T03:21:54.363Z,15.39
2017-05-14T03:22:55.733Z,15.42
2017-05-14T03:23:57.100Z,15.35
2017-05-14T03:24:58.472Z,15.33
2017-05-14T03:25:59.840Z,15.36
2017-05-14T03:27:01.212Z,15.36
2017-05-14T03:28:02.579Z,15.31
2017-05-14T03:29:03.942Z,15.27
2017-05-14T03:30:05.329Z,15.36
2017-05-14T03:31:06.690Z,15.35
2017-05-14T03:32:08.058Z,15.41
2017-05-14T03:33:09.422Z,15.41
2017-05-14T03:34:10.814Z,15.35
2017-05-14T03:35:12.170Z,15.30
2017-05-14T03:36:13.600Z,15.41
2017-05-14T03:37:14.970Z,15.39
2017-05-14T03:38:16.333Z,15.39
2017-05-14T03:39:17.698Z,15.39
2017-05-14T03:40:19.068Z,15.35
2017-05-14T03:41:20.447Z,15.41
2017-05-14T03:42:21.812Z,15.51
2017-05-14T03:43:23.179Z,15.39
2017-05-14T03:44:24.546Z,15.38
2017-05-14T03:45:25.911Z,15.33
2017-05-14T03:46:27.281Z,15.38
2017-05-14T03:47:28.651Z,15.39
2017-05-14T03:48:30.020Z,15.36
2017-05-14T03:49:31.382Z,15.43
2017-05-14T03:50:32.774Z,15.41
2017-05-14T03:51:34.144Z,15.36
2017-05-14T03:52:35.516Z,15.36
2017-05-14T03:53:36.882Z,15.51
2017-05-14T03:54:38.252Z,15.43
2017-05-14T03:55:39.632Z,15.43
2017-05-14T03:56:40.995Z,15.54
2017-05-14T03:57:42.364Z,15.51
2017-05-14T03:58:43.730Z,15.36
2017-05-14T03:59:45.102Z,15.33
2017-05-14T04:00:46.473Z,15.35
2017-05-14T04:01:47.842Z,15.31
2017-05-14T04:02:49.213Z,15.41
2017-05-14T04:03:50.587Z,15.35
2017-05-14T04:04:51.955Z,15.48
2017-05-14T04:05:53.327Z,15.38
2017-05-14T04:06:54.700Z,15.42
2017-05-14T04:07:56.097Z,15.42
2017-05-14T04:08:57.461Z,15.52
2017-05-14T04:09:58.846Z,15.46
2017-05-14T04:11:00.221Z,15.49
2017-05-14T04:12:01.578Z,15.52
2017-05-14T04:13:02.944Z,15.49
2017-05-14T04:14:04.319Z,15.54
2017-05-14T04:15:05.682Z,15.49
2017-05-14T04:16:07.046Z,15.59
2017-05-14T04:17:08.417Z,15.49
2017-05-14T04:18:09.781Z,15.59
2017-05-14T04:19:11.151Z,15.59
2017-05-14T04:20:12.521Z,15.57
2017-05-14T04:21:13.895Z,15.61
2017-05-14T04:22:15.912Z,15.59
2017-05-14T04:23:17.285Z,15.60
2017-05-14T04:24:18.721Z,15.63
2017-05-14T04:25:20.089Z,15.66
2017-05-14T04:26:21.464Z,15.64
2017-05-14T04:27:22.831Z,15.72
2017-05-14T04:28:24.195Z,15.72
2017-05-14T04:29:25.572Z,15.76
2017-05-14T04:30:26.937Z,15.74
2017-05-14T04:31:28.308Z,15.75
2017-05-14T04:32:29.679Z,15.76
2017-05-14T04:33:31.050Z,15.72
2017-05-14T04:34:32.418Z,15.78
2017-05-14T04:35:33.790Z,15.76
2017-05-14T04:36:35.159Z,15.75
2017-05-14T04:37:36.541Z,15.84
2017-05-14T04:38:37.910Z,15.79
2017-05-14T04:39:39.279Z,15.79
2017-05-14T04:40:40.645Z,15.85
2017-05-14T04:41:42.016Z,15.93
2017-05-14T04:42:43.386Z,15.94
2017-05-14T04:43:44.760Z,15.96
2017-05-14T04:44:46.141Z,15.99
2017-05-14T04:45:47.518Z,16.03
2017-05-14T04:46:48.883Z,16.00
2017-05-14T04:47:50.257Z,16.04
2017-05-14T04:48:51.635Z,16.06
2017-05-14T04:49:52.998Z,16.06
2017-05-14T04:50:54.421Z,16.15
2017-05-14T04:51:55.791Z,16.15
2017-05-14T04:52:57.155Z,16.07
2017-05-14T04:53:58.524Z,16.12
2017-05-14T04:54:59.891Z,16.20
2017-05-14T04:56:01.278Z,16.22
2017-05-14T04:57:02.651Z,16.25
2017-05-14T04:58:04.068Z,16.16
2017-05-14T04:59:05.400Z,16.22
2017-05-14T05:00:06.862Z,16.23
2017-05-14T05:01:08.270Z,16.33
2017-05-14T05:02:09.633Z,16.31
2017-05-14T05:03:11.009Z,16.35
2017-05-14T05:04:12.378Z,16.37
2017-05-14T05:05:13.765Z,16.26
2017-05-14T05:06:15.137Z,16.41
2017-05-14T05:07:16.546Z,16.35
2017-05-14T05:08:17.922Z,16.42
2017-05-14T05:09:19.299Z,16.44
2017-05-14T05:10:20.663Z,16.40
2017-05-14T05:11:22.044Z,16.53
2017-05-14T05:12:23.489Z,16.58
2017-05-14T05:13:24.867Z,16.50
2017-05-14T05:14:26.234Z,16.55
2017-05-14T05:15:27.601Z,16.60
2017-05-14T05:16:28.972Z,16.68
2017-05-14T05:17:30.346Z,16.67
2017-05-14T05:18:31.713Z,16.71
2017-05-14T05:19:33.083Z,16.74
2017-05-14T05:20:34.452Z,16.70
2017-05-14T05:21:35.822Z,16.75
2017-05-14T05:22:37.237Z,16.77
2017-05-14T05:23:38.561Z,16.80
2017-05-14T05:24:39.934Z,16.77
2017-05-14T05:25:41.303Z,16.83
2017-05-14T05:26:42.678Z,16.90
2017-05-14T05:27:44.055Z,16.86
2017-05-14T05:28:45.429Z,16.89
2017-05-14T05:29:46.798Z,16.96
2017-05-14T05:30:48.161Z,16.88
2017-05-14T05:31:49.530Z,16.85
2017-05-14T05:32:50.902Z,16.96
2017-05-14T05:33:52.276Z,16.92
2017-05-14T05:34:53.678Z,17.06
2017-05-14T05:35:55.048Z,17.00
2017-05-14T05:36:56.489Z,17.22
2017-05-14T05:37:57.864Z,17.13
2017-05-14T05:38:59.245Z,17.11
2017-05-14T05:40:00.620Z,17.15
2017-05-14T05:41:01.992Z,17.13
2017-05-14T05:42:03.364Z,17.17
2017-05-14T05:43:04.732Z,17.25
2017-05-14T05:44:06.102Z,17.25
2017-05-14T05:45:07.469Z,17.22
2017-05-14T05:46:08.845Z,17.38
2017-05-14T05:47:10.219Z,17.26
2017-05-14T05:48:11.584Z,17.40
2017-05-14T05:49:12.959Z,17.36
2017-05-14T05:50:14.331Z,17.29
2017-05-14T05:51:15.711Z,17.46
2017-05-14T05:52:17.080Z,17.35
2017-05-14T05:53:18.454Z,17.50
2017-05-14T05:54:19.821Z,17.51
2017-05-14T05:55:21.222Z,17.54
2017-05-14T05:56:22.597Z,17.48
2017-05-14T05:57:23.970Z,17.51
2017-05-14T05:58:25.370Z,17.66
2017-05-14T05:59:26.743Z,17.67
2017-05-14T06:00:28.679Z,17.69
2017-05-14T06:01:30.000Z,17.67
2017-05-14T06:02:31.373Z,17.66
2017-05-14T06:03:32.738Z,17.63
2017-05-14T06:04:34.718Z,17.73
2017-05-14T06:05:36.084Z,17.70
2017-05-14T06:06:37.451Z,17.73
2017-05-14T06:07:38.864Z,17.84
2017-05-14T06:08:40.233Z,17.82
2017-05-14T06:09:41.612Z,17.88
2017-05-14T06:10:42.991Z,17.89
2017-05-14T06:11:44.357Z,17.85
2017-05-14T06:12:45.824Z,17.82
2017-05-14T06:13:47.185Z,17.87
2017-05-14T06:14:48.559Z,18.00
2017-05-14T06:15:49.922Z,18.09
2017-05-14T06:16:51.294Z,18.13
2017-05-14T06:17:52.670Z,18.06
2017-05-14T06:18:54.038Z,18.17
2017-05-14T06:19:55.400Z,18.07
2017-05-14T06:20:56.768Z,18.02
2017-05-14T06:21:58.142Z,18.13
2017-05-14T06:22:59.548Z,18.13
2017-05-14T06:24:00.881Z,18.13
2017-05-14T06:25:02.251Z,18.22
2017-05-14T06:26:03.654Z,18.21
2017-05-14T06:27:05.021Z,18.19
2017-05-14T06:28:06.395Z,18.22
2017-05-14T06:29:07.756Z,18.25
2017-05-14T06:30:09.129Z,18.34
2017-05-14T06:31:10.500Z,18.40
2017-05-14T06:32:11.915Z,18.43
2017-05-14T06:33:13.282Z,18.43
2017-05-14T06:34:14.656Z,18.40
2017-05-14T06:35:16.025Z,18.46
2017-05-14T06:36:17.398Z,18.54
2017-05-14T06:37:18.796Z,18.54
2017-05-14T06:38:20.169Z,18.43
2017-05-14T06:39:21.541Z,18.59
2017-05-14T06:40:22.913Z,18.50
2017-05-14T06:41:24.278Z,18.59
2017-05-14T06:42:25.650Z,18.68
2017-05-14T06:43:27.022Z,18.62
2017-05-14T06:44:28.389Z,18.77
2017-05-14T06:45:29.757Z,18.76
2017-05-14T06:46:31.134Z,18.76
2017-05-14T06:47:32.510Z,18.76
2017-05-14T06:48:33.968Z,18.91
2017-05-14T06:49:35.337Z,18.87
2017-05-14T06:50:36.710Z,18.91
2017-05-14T06:51:38.081Z,19.06
2017-05-14T06:52:39.448Z,19.01
2017-05-14T06:53:40.860Z,19.10
2017-05-14T06:54:42.237Z,19.02
2017-05-14T06:55:43.613Z,18.99
2017-05-14T06:56:44.994Z,19.01
2017-05-14T06:57:46.369Z,19.08
2017-05-14T06:58:47.747Z,19.10
2017-05-14T06:59:49.122Z,19.11
2017-05-14T07:00:50.495Z,19.14
2017-05-14T07:01:52.819Z,19.14
2017-05-14T07:02:54.193Z,19.17
2017-05-14T07:03:55.564Z,19.24
2017-05-14T07:04:56.937Z,19.25
2017-05-14T07:05:58.315Z,19.21
2017-05-14T07:06:59.688Z,19.32
2017-05-14T07:08:01.059Z,19.38
2017-05-14T07:09:02.435Z,19.43
2017-05-14T07:10:03.804Z,19.40
2017-05-14T07:11:05.173Z,19.42
2017-05-14T07:12:06.548Z,19.50
2017-05-14T07:13:07.926Z,19.36
2017-05-14T07:14:09.302Z,19.42
2017-05-14T07:15:10.904Z,19.58
2017-05-14T07:16:12.268Z,19.57
2017-05-14T07:17:13.643Z,19.54
2017-05-14T07:18:15.011Z,19.55
2017-05-14T07:19:16.391Z,19.66
2017-05-14T07:20:17.764Z,19.79
2017-05-14T07:21:19.157Z,19.75
2017-05-14T07:22:20.519Z,19.70
2017-05-14T07:23:21.915Z,19.73
2017-05-14T07:24:23.282Z,19.80
2017-05-14T07:25:24.661Z,19.79
2017-05-14T07:26:26.035Z,19.91
2017-05-14T07:27:27.411Z,19.91
2017-05-14T07:28:29.299Z,20.00
2017-05-14T07:29:30.674Z,20.05
2017-05-14T07:30:32.051Z,19.94
2017-05-14T07:31:33.420Z,19.90
2017-05-14T07:32:34.847Z,20.00
2017-05-14T07:33:36.219Z,20.02
2017-05-14T07:34:37.591Z,20.00
2017-05-14T07:35:39.036Z,20.09
2017-05-14T07:36:40.409Z,20.13
2017-05-14T07:37:41.780Z,20.06
2017-05-14T07:38:43.155Z,20.28
2017-05-14T07:39:44.525Z,20.16
2017-05-14T07:40:45.888Z,20.27
2017-05-14T07:41:47.261Z,20.18
2017-05-14T07:42:48.637Z,20.24
2017-05-14T07:43:50.010Z,20.27
2017-05-14T07:44:51.389Z,20.28
2017-05-14T07:45:52.761Z,20.34
2017-05-14T07:46:54.152Z,20.33
2017-05-14T07:47:55.514Z,20.35
2017-05-14T07:48:56.933Z,20.33
2017-05-14T07:49:58.303Z,20.46
2017-05-14T07:50:59.677Z,20.38
2017-05-14T07:52:01.533Z,20.46
2017-05-14T07:53:02.908Z,20.33
2017-05-14T07:54:04.419Z,20.42
2017-05-14T07:55:05.825Z,20.46
2017-05-14T07:56:07.190Z,20.59
2017-05-14T07:57:08.584Z,20.53
2017-05-14T07:58:09.954Z,20.53
2017-05-14T07:59:11.371Z,20.58
2017-05-14T08:00:12.736Z,20.61
2017-05-14T08:01:14.109Z,20.64
2017-05-14T08:02:16.079Z,20.65
2017-05-14T08:03:17.449Z,20.69
2017-05-14T08:04:18.822Z,20.61
2017-05-14T08:05:20.327Z,20.76
2017-05-14T08:06:21.698Z,20.68
2017-05-14T08:07:23.070Z,20.80
2017-05-14T08:08:24.445Z,20.69
2017-05-14T08:09:25.816Z,20.77
2017-05-14T08:10:27.188Z,20.84
2017-05-14T08:11:28.559Z,20.83
2017-05-14T08:12:29.932Z,20.87
2017-05-14T08:13:31.307Z,20.93
2017-05-14T08:14:32.689Z,20.93
2017-05-14T08:15:34.073Z,20.86
2017-05-14T08:16:35.442Z,20.84
2017-05-14T08:17:36.814Z,20.90
2017-05-14T08:18:38.189Z,20.84
2017-05-14T08:19:39.565Z,20.87
2017-05-14T08:20:40.952Z,20.87
2017-05-14T08:21:42.325Z,20.89
2017-05-14T08:22:43.705Z,20.91
2017-05-14T08:23:45.104Z,20.96
2017-05-14T08:24:46.484Z,20.95
2017-05-14T08:25:47.869Z,20.87
2017-05-14T08:26:49.234Z,20.96
2017-05-14T08:27:50.610Z,20.99
2017-05-14T08:28:51.978Z,20.93
2017-05-14T08:29:53.354Z,20.84
2017-05-14T08:30:54.722Z,20.93
2017-05-14T08:31:56.764Z,20.96
2017-05-14T08:32:58.139Z,21.05
2017-05-14T08:33:59.528Z,21.13
2017-05-14T08:35:00.895Z,21.24
2017-05-14T08:36:02.270Z,21.26
2017-05-14T08:37:03.642Z,21.24
2017-05-14T08:38:05.026Z,21.23
2017-05-14T08:39:06.402Z,21.26
2017-05-14T08:40:07.786Z,21.20
2017-05-14T08:41:09.167Z,21.20
2017-05-14T08:42:10.547Z,21.24
2017-05-14T08:43:11.926Z,21.27
2017-05-14T08:44:13.298Z,21.34
2017-05-14T08:45:14.669Z,21.34
2017-05-14T08:46:16.045Z,21.34
2017-05-14T08:47:17.413Z,21.32
2017-05-14T08:48:18.797Z,21.23
2017-05-14T08:49:20.179Z,21.39
2017-05-14T08:50:21.554Z,21.35
2017-05-14T08:51:22.934Z,21.57
2017-05-14T08:52:24.324Z,21.56
2017-05-14T08:53:25.701Z,21.53
2017-05-14T08:54:27.076Z,21.63
2017-05-14T08:55:28.495Z,21.64
2017-05-14T08:56:29.897Z,21.69
2017-05-14T08:57:31.265Z,21.69
2017-05-14T08:58:32.711Z,21.76
2017-05-14T08:59:34.079Z,21.87
2017-05-14T09:00:35.506Z,21.90
2017-05-14T09:01:36.879Z,21.83
2017-05-14T09:02:38.259Z,21.91
2017-05-14T09:03:39.635Z,21.90
2017-05-14T09:04:41.011Z,21.85
2017-05-14T09:05:42.402Z,21.94
2017-05-14T09:06:43.776Z,21.59
2017-05-14T09:07:45.799Z,21.87
2017-05-14T09:08:47.165Z,21.90
2017-05-14T09:09:48.546Z,21.92
2017-05-14T09:10:49.965Z,22.10
2017-05-14T09:11:51.345Z,22.13
2017-05-14T09:12:52.714Z,22.04
2017-05-14T09:13:54.095Z,22.16
2017-05-14T09:14:56.081Z,21.97
2017-05-14T09:15:57.462Z,21.57
2017-05-14T09:16:58.836Z,21.79
2017-05-14T09:18:00.208Z,21.82
2017-05-14T09:19:01.579Z,21.90
2017-05-14T09:20:03.089Z,21.92
2017-05-14T09:21:04.484Z,22.07
2017-05-14T09:22:05.854Z,22.09
2017-05-14T09:23:07.221Z,22.14
2017-05-14T09:24:08.632Z,22.16
2017-05-14T09:25:10.007Z,22.06
2017-05-14T09:26:11.383Z,22.10
2017-05-14T09:27:12.759Z,22.02
2017-05-14T09:28:14.144Z,22.14
2017-05-14T09:29:15.517Z,22.14
2017-05-14T09:30:16.895Z,22.16
2017-05-14T09:31:18.268Z,22.28
2017-05-14T09:32:19.735Z,22.32
2017-05-14T09:33:21.127Z,22.43
2017-05-14T09:34:22.521Z,22.50
2017-05-14T09:35:23.887Z,22.46
2017-05-14T09:36:25.266Z,22.49
2017-05-14T09:37:26.652Z,22.19
2017-05-14T09:38:28.098Z,22.17
2017-05-14T09:39:29.470Z,21.92
2017-05-14T09:40:30.842Z,22.02
2017-05-14T09:41:32.218Z,22.13
2017-05-14T09:42:33.609Z,22.10
2017-05-14T09:43:34.983Z,22.13
2017-05-14T09:44:36.358Z,22.17
2017-05-14T09:45:37.733Z,22.02
2017-05-14T09:46:39.110Z,22.19
2017-05-14T09:47:40.489Z,22.22
2017-05-14T09:48:41.908Z,22.28
2017-05-14T09:49:43.236Z,22.16
2017-05-14T09:50:44.620Z,22.20
2017-05-14T09:51:46.015Z,22.04
2017-05-14T09:52:47.382Z,21.98
2017-05-14T09:53:48.767Z,22.20
2017-05-14T09:54:50.136Z,22.29
2017-05-14T09:55:51.504Z,22.35
2017-05-14T09:56:52.887Z,22.29
2017-05-14T09:57:54.321Z,22.20
2017-05-14T09:58:55.697Z,22.17
2017-05-14T09:59:57.072Z,22.02
2017-05-14T10:00:58.450Z,22.12
2017-05-14T10:01:59.835Z,22.13
2017-05-14T10:03:01.207Z,22.10
2017-05-14T10:04:02.586Z,22.07
2017-05-14T10:05:03.953Z,22.17
2017-05-14T10:06:05.328Z,22.39
2017-05-14T10:07:06.699Z,22.49
2017-05-14T10:08:08.072Z,22.49
2017-05-14T10:09:09.454Z,22.57
2017-05-14T10:10:10.822Z,22.54
2017-05-14T10:11:12.240Z,22.68
2017-05-14T10:12:13.615Z,22.72
2017-05-14T10:13:14.980Z,22.74
2017-05-14T10:14:16.357Z,22.77
2017-05-14T10:15:17.732Z,22.75
2017-05-14T10:16:19.103Z,22.75
2017-05-14T10:17:20.473Z,22.80
2017-05-14T10:18:21.853Z,22.75
2017-05-14T10:19:23.228Z,22.74
2017-05-14T10:20:24.602Z,22.64
2017-05-14T10:21:25.978Z,22.71
2017-05-14T10:22:27.368Z,22.84
2017-05-14T10:23:28.726Z,22.84
2017-05-14T10:24:30.093Z,22.89
2017-05-14T10:25:31.466Z,22.92
2017-05-14T10:26:32.842Z,22.89
2017-05-14T10:27:34.229Z,22.86
2017-05-14T10:28:35.649Z,22.77
2017-05-14T10:29:37.046Z,22.65
2017-05-14T10:30:38.433Z,22.65
2017-05-14T10:31:39.805Z,22.65
2017-05-14T10:32:41.171Z,22.56
2017-05-14T10:33:42.543Z,22.54
2017-05-14T10:34:44.147Z,22.37
2017-05-14T10:35:46.501Z,22.54
2017-05-14T10:36:47.870Z,22.75
2017-05-14T10:37:49.244Z,22.82
2017-05-14T10:38:50.615Z,22.89
2017-05-14T10:39:51.978Z,22.97
2017-05-14T10:40:53.349Z,23.17
2017-05-14T10:41:54.739Z,23.20
2017-05-14T10:42:56.159Z,23.15
2017-05-14T10:43:57.533Z,23.17
2017-05-14T10:44:58.903Z,23.20
2017-05-14T10:46:00.292Z,23.14
2017-05-14T10:47:01.661Z,22.97
2017-05-14T10:48:03.032Z,23.02
2017-05-14T10:49:04.406Z,23.19
2017-05-14T10:50:05.783Z,23.24
2017-05-14T10:51:07.162Z,23.27
2017-05-14T10:52:08.532Z,23.32
2017-05-14T10:53:09.995Z,23.50
2017-05-14T10:54:11.371Z,23.38
2017-05-14T10:55:12.745Z,23.22
2017-05-14T10:56:14.118Z,23.42
2017-05-14T10:57:15.493Z,23.24
2017-05-14T10:58:16.871Z,23.23
2017-05-14T10:59:18.242Z,23.26
2017-05-14T11:00:19.624Z,23.38
2017-05-14T11:01:21.001Z,23.40
2017-05-14T11:02:22.403Z,23.55
2017-05-14T11:03:23.781Z,23.57
2017-05-14T11:04:25.151Z,23.64
2017-05-14T11:05:26.528Z,23.57
2017-05-14T11:06:27.909Z,23.60
2017-05-14T11:07:29.284Z,23.65
2017-05-14T11:08:30.655Z,23.72
2017-05-14T11:09:32.025Z,23.67
2017-05-14T11:10:33.409Z,23.71
2017-05-14T11:11:34.791Z,23.57
2017-05-14T11:12:36.173Z,23.55
2017-05-14T11:13:37.545Z,23.50
2017-05-14T11:14:38.920Z,23.68
2017-05-14T11:15:40.287Z,23.68
2017-05-14T11:16:41.687Z,23.80
2017-05-14T11:17:43.062Z,23.80
2017-05-14T11:18:44.436Z,23.92
2017-05-14T11:19:45.819Z,23.92
2017-05-14T11:20:47.198Z,23.86
2017-05-14T11:21:48.583Z,23.95
2017-05-14T11:22:49.971Z,23.94
2017-05-14T11:23:51.411Z,24.04
2017-05-14T11:24:52.794Z,24.02
2017-05-14T11:25:54.159Z,24.13
2017-05-14T11:26:55.538Z,23.98
2017-05-14T11:27:57.791Z,24.14
2017-05-14T11:28:59.160Z,24.16
2017-05-14T11:30:00.586Z,24.20
2017-05-14T11:31:02.017Z,24.23
2017-05-14T11:32:03.395Z,24.39
2017-05-14T11:33:04.868Z,24.37
2017-05-14T11:34:06.245Z,24.41
2017-05-14T11:35:07.627Z,24.42
2017-05-14T11:36:09.000Z,24.31
2017-05-14T11:37:11.314Z,24.20
2017-05-14T11:38:12.740Z,24.12
2017-05-14T11:39:14.145Z,24.00
2017-05-14T11:40:15.556Z,23.95
2017-05-14T11:41:16.926Z,24.04
2017-05-14T11:42:18.306Z,24.07
2017-05-14T11:43:19.705Z,24.07
2017-05-14T11:44:21.093Z,24.14
2017-05-14T11:45:22.462Z,24.02
2017-05-14T11:46:23.842Z,24.07
2017-05-14T11:47:25.218Z,23.90
2017-05-14T11:48:26.592Z,23.86
2017-05-14T11:49:28.017Z,23.95
2017-05-14T11:50:29.393Z,23.85
2017-05-14T11:51:30.777Z,23.82
2017-05-14T11:52:32.154Z,23.76
2017-05-14T11:53:33.559Z,23.86
2017-05-14T11:54:34.987Z,23.92
2017-05-14T11:55:36.362Z,23.95
2017-05-14T11:56:37.732Z,23.75
2017-05-14T11:57:39.109Z,23.72
2017-05-14T11:58:40.480Z,23.62
2017-05-14T11:59:41.862Z,23.77
2017-05-14T12:00:43.230Z,23.94
2017-05-14T12:01:44.611Z,23.98
2017-05-14T12:02:45.981Z,24.07
2017-05-14T12:03:47.360Z,23.92
2017-05-14T12:04:48.741Z,23.83
2017-05-14T12:05:50.115Z,23.76
2017-05-14T12:06:51.489Z,23.77
2017-05-14T12:07:52.939Z,23.90
2017-05-14T12:08:54.310Z,23.94
2017-05-14T12:09:55.687Z,23.98
2017-05-14T12:10:57.065Z,24.05
2017-05-14T12:11:58.451Z,24.05
2017-05-14T12:12:59.824Z,23.92
2017-05-14T12:14:01.213Z,24.19
2017-05-14T12:15:02.590Z,24.32
2017-05-14T12:16:03.965Z,24.26
2017-05-14T12:17:05.393Z,24.29
2017-05-14T12:18:06.767Z,24.29
2017-05-14T12:19:08.143Z,24.31
2017-05-14T12:20:09.587Z,24.42
2017-05-14T12:21:10.967Z,24.31
2017-05-14T12:22:12.346Z,23.98
2017-05-14T12:23:13.723Z,24.24
2017-05-14T12:24:15.097Z,24.32
2017-05-14T12:25:16.463Z,24.39
2017-05-14T12:26:17.892Z,24.29
2017-05-14T12:27:19.265Z,24.24
2017-05-14T12:28:20.642Z,24.34
2017-05-14T12:29:22.015Z,24.31
2017-05-14T12:30:23.400Z,24.08
2017-05-14T12:31:24.788Z,24.23
2017-05-14T12:32:26.156Z,24.23
2017-05-14T12:33:27.533Z,24.12
2017-05-14T12:34:28.902Z,23.89
2017-05-14T12:35:30.284Z,23.82
2017-05-14T12:36:31.663Z,24.02
2017-05-14T12:37:33.041Z,24.08
2017-05-14T12:38:34.548Z,24.07
2017-05-14T12:39:35.921Z,24.17
2017-05-14T12:40:37.289Z,24.02
2017-05-14T12:41:38.621Z,24.08
2017-05-14T12:42:39.997Z,24.07
2017-05-14T12:43:41.377Z,23.83
2017-05-14T12:44:42.756Z,23.82
2017-05-14T12:45:44.137Z,23.82
2017-05-14T12:46:45.558Z,23.72
2017-05-14T12:47:46.883Z,23.60
2017-05-14T12:48:48.264Z,23.61
2017-05-14T12:49:49.631Z,23.61
2017-05-14T12:50:51.003Z,23.62
2017-05-14T12:51:52.382Z,23.75
2017-05-14T12:52:53.768Z,23.83
2017-05-14T12:53:55.139Z,23.97
2017-05-14T12:54:56.514Z,24.04
2017-05-14T12:55:57.891Z,24.10
2017-05-14T12:56:59.264Z,24.07
2017-05-14T12:58:00.674Z,24.02
2017-05-14T12:59:02.382Z,24.12
2017-05-14T13:00:03.751Z,24.07
2017-05-14T13:01:05.123Z,24.10
2017-05-14T13:02:06.492Z,24.31
2017-05-14T13:03:07.873Z,24.32
2017-05-14T13:04:09.248Z,24.32
2017-05-14T13:05:10.649Z,24.10
2017-05-14T13:06:12.047Z,24.13
2017-05-14T13:07:13.434Z,24.16
2017-05-14T13:08:14.903Z,24.35
2017-05-14T13:09:16.284Z,24.32
2017-05-14T13:10:17.659Z,24.39